Time,TemperatureF,DewpointF,PressureIn,WindDirection,WindDirectionDegrees,WindSpeedMPH,WindSpeedGustMPH,Humidity,HourlyPrecipIn,Conditions,Clouds,dailyrainin,SoftwareType,DateUTC
2013-07-17 00:04:00,76.7,75.0,30.12,ENE,72,2.0,2.0,94,0.00,,,0.00,weatherlink.com 1.10,2013-07-17 05:04:00,
2013-07-17 00:19:00,76.4,75.0,30.12,ENE,67,0.0,3.0,94,0.00,,,0.00,weatherlink.com 1.10,2013-07-17 05:19:00,
2013-07-17 00:34:00,76.2,75.0,30.12,ENE,57,1.0,3.0,95,0.00,,,0.00,weatherlink.com 1.10,2013-07-17 05:34:00,
2013-07-17 00:49:00,76.1,75.0,30.12,ENE,59,0.0,1.0,95,0.00,,,0.00,weatherlink.com 1.10,2013-07-17 05:49:00,
2013-07-17 01:04:00,75.8,74.0,30.13,ENE,59,0.0,0.0,95,0.00,,,0.00,weatherlink.com 1.10,2013-07-17 06:04:00,
2013-07-17 01:19:00,75.6,74.0,30.13,ENE,59,0.0,1.0,96,0.00,,,0.00,weatherlink.com 1.10,2013-07-17 06:19:00,
2013-07-17 01:34:00,75.5,74.0,30.12,ENE,59,0.0,2.0,96,0.00,,,0.00,weatherlink.com 1.10,2013-07-17 06:34:00,
2013-07-17 01:49:00,75.3,74.0,30.12,ENE,59,0.0,1.0,96,0.00,,,0.00,weatherlink.com 1.10,2013-07-17 06:49:00,
2013-07-17 02:04:00,75.1,74.0,30.12,ENE,59,0.0,1.0,97,0.00,,,0.00,weatherlink.com 1.10,2013-07-17 07:04:00,
2013-07-17 02:19:00,75.0,74.0,30.11,NE,55,1.0,2.0,97,0.00,,,0.00,weatherlink.com 1.10,2013-07-17 07:19:00,
2013-07-17 02:34:00,75.0,74.0,30.11,ENE,70,2.0,5.0,97,0.00,,,0.00,weatherlink.com 1.10,2013-07-17 07:34:00,
2013-07-17 02:49:00,75.0,74.0,30.10,ENE,59,0.0,2.0,97,0.00,,,0.00,weatherlink.com 1.10,2013-07-17 07:49:00,
2013-07-17 03:04:00,75.0,74.0,30.10,NE,46,1.0,4.0,98,0.00,,,0.00,weatherlink.com 1.10,2013-07-17 08:04:00,
2013-07-17 03:19:00,75.1,75.0,30.10,ENE,67,0.0,6.0,98,0.00,,,0.00,weatherlink.com 1.10,2013-07-17 08:19:00,
2013-07-17 03:34:00,75.3,75.0,30.10,East,79,3.0,6.0,98,0.00,,,0.00,weatherlink.com 1.10,2013-07-17 08:34:00,
2013-07-17 03:49:00,75.4,75.0,30.10,ENE,74,3.0,6.0,98,0.00,,,0.00,weatherlink.com 1.10,2013-07-17 08:49:00,
2013-07-17 04:04:00,75.2,75.0,30.10,East,80,1.0,4.0,98,0.00,,,0.00,weatherlink.com 1.10,2013-07-17 09:04:00,
2013-07-17 04:19:00,75.1,75.0,30.10,ENE,64,0.0,5.0,98,0.00,,,0.00,weatherlink.com 1.10,2013-07-17 09:19:00,
2013-07-17 04:34:00,75.0,74.0,30.10,ENE,68,1.0,2.0,98,0.00,,,0.00,weatherlink.com 1.10,2013-07-17 09:34:00,
2013-07-17 04:49:00,74.9,74.0,30.10,ENE,74,1.0,3.0,98,0.00,,,0.00,weatherlink.com 1.10,2013-07-17 09:49:00,
2013-07-17 05:04:00,74.9,74.0,30.10,ENE,69,1.0,2.0,98,0.00,,,0.00,weatherlink.com 1.10,2013-07-17 10:04:00,
2013-07-17 05:19:00,74.9,74.0,30.11,NE,55,0.0,2.0,98,0.00,,,0.00,weatherlink.com 1.10,2013-07-17 10:19:00,
2013-07-17 05:34:00,75.0,74.0,30.11,ENE,65,0.0,2.0,98,0.00,,,0.00,weatherlink.com 1.10,2013-07-17 10:34:00,
2013-07-17 05:49:00,75.3,75.0,30.12,ENE,70,1.0,3.0,98,0.00,,,0.00,weatherlink.com 1.10,2013-07-17 10:49:00,
2013-07-17 06:04:00,75.5,75.0,30.12,ENE,63,1.0,3.0,98,0.00,,,0.00,weatherlink.com 1.10,2013-07-17 11:04:00,
2013-07-17 06:19:00,75.7,75.0,30.12,East,79,2.0,5.0,98,0.00,,,0.00,weatherlink.com 1.10,2013-07-17 11:19:00,
2013-07-17 06:34:00,75.8,75.0,30.12,ENE,60,3.0,5.0,98,0.00,,,0.00,weatherlink.com 1.10,2013-07-17 11:34:00,
2013-07-17 06:49:00,76.1,76.0,30.12,East,81,2.0,5.0,98,0.00,,,0.00,weatherlink.com 1.10,2013-07-17 11:49:00,
2013-07-17 07:04:00,76.5,76.0,30.12,NE,37,1.0,7.0,98,0.00,,,0.00,weatherlink.com 1.10,2013-07-17 12:04:00,
2013-07-17 07:19:00,76.9,76.0,30.13,NE,55,3.0,6.0,98,0.00,,,0.00,weatherlink.com 1.10,2013-07-17 12:19:00,
2013-07-17 07:34:00,77.3,76.0,30.14,East,86,3.0,5.0,97,0.00,,,0.00,weatherlink.com 1.10,2013-07-17 12:34:00,
2013-07-17 07:49:00,78.1,77.0,30.14,East,83,3.0,5.0,96,0.00,,,0.00,weatherlink.com 1.10,2013-07-17 12:49:00,
2013-07-17 08:05:00,78.9,77.0,30.15,East,88,5.0,8.0,94,0.00,,,0.00,weatherlink.com 1.10,2013-07-17 13:05:00,
2013-07-17 08:20:00,79.5,77.0,30.15,ESE,111,2.0,8.0,93,0.00,,,0.00,weatherlink.com 1.10,2013-07-17 13:20:00,
2013-07-17 08:35:00,79.7,77.0,30.16,ENE,59,1.0,9.0,92,0.00,,,0.00,weatherlink.com 1.10,2013-07-17 13:35:00,
2013-07-17 08:50:00,80.7,78.0,30.16,ENE,63,1.0,10.0,90,0.00,,,0.00,weatherlink.com 1.10,2013-07-17 13:50:00,
2013-07-17 09:05:00,81.2,77.0,30.16,ESE,109,4.0,9.0,88,0.00,,,0.00,weatherlink.com 1.10,2013-07-17 14:05:00,
2013-07-17 09:20:00,81.1,77.0,30.16,East,95,1.0,12.0,88,0.00,,,0.00,weatherlink.com 1.10,2013-07-17 14:20:00,
2013-07-17 09:35:00,82.4,78.0,30.16,East,97,5.0,10.0,86,0.00,,,0.00,weatherlink.com 1.10,2013-07-17 14:35:00,
2013-07-17 09:50:00,82.6,77.0,30.17,ENE,72,2.0,10.0,84,0.00,,,0.00,weatherlink.com 1.10,2013-07-17 14:50:00,
2013-07-17 10:05:00,83.0,77.0,30.18,ENE,76,7.0,10.0,82,0.00,,,0.00,weatherlink.com 1.10,2013-07-17 15:05:00,
2013-07-17 10:20:00,83.9,77.0,30.18,ENE,68,3.0,13.0,80,0.00,,,0.00,weatherlink.com 1.10,2013-07-17 15:20:00,
2013-07-17 10:35:00,84.8,78.0,30.18,ESE,119,10.0,11.0,79,0.00,,,0.00,weatherlink.com 1.10,2013-07-17 15:35:00,
2013-07-17 10:50:00,85.6,77.0,30.18,East,80,3.0,9.0,76,0.00,,,0.00,weatherlink.com 1.10,2013-07-17 15:50:00,
2013-07-17 11:05:00,85.7,77.0,30.18,ENE,67,3.0,10.0,76,0.00,,,0.00,weatherlink.com 1.10,2013-07-17 16:05:00,
2013-07-17 11:20:00,86.0,77.0,30.18,East,80,8.0,11.0,75,0.00,,,0.00,weatherlink.com 1.10,2013-07-17 16:20:00,
2013-07-17 11:35:00,86.7,78.0,30.17,ESE,104,1.0,8.0,76,0.00,,,0.00,weatherlink.com 1.10,2013-07-17 16:35:00,
2013-07-17 11:50:00,87.7,78.0,30.17,East,90,7.0,10.0,72,0.00,,,0.00,weatherlink.com 1.10,2013-07-17 16:50:00,
2013-07-17 12:05:00,87.6,77.0,30.17,NE,52,7.0,10.0,71,0.00,,,0.00,weatherlink.com 1.10,2013-07-17 17:05:00,
2013-07-17 12:20:00,87.2,77.0,30.16,SE,140,2.0,10.0,72,0.00,,,0.00,weatherlink.com 1.10,2013-07-17 17:20:00,
2013-07-17 12:35:00,88.4,79.0,30.17,East,87,6.0,9.0,74,0.00,,,0.00,weatherlink.com 1.10,2013-07-17 17:35:00,
2013-07-17 12:50:00,88.6,79.0,30.16,SE,124,6.0,11.0,72,0.00,,,0.00,weatherlink.com 1.10,2013-07-17 17:50:00,
2013-07-17 13:05:00,89.3,77.0,30.16,East,82,6.0,8.0,67,0.00,,,0.00,weatherlink.com 1.10,2013-07-17 18:05:00,
2013-07-17 13:20:00,89.5,77.0,30.16,ESE,123,3.0,11.0,66,0.00,,,0.00,weatherlink.com 1.10,2013-07-17 18:20:00,
2013-07-17 13:35:00,90.0,79.0,30.15,ENE,76,3.0,10.0,70,0.00,,,0.00,weatherlink.com 1.10,2013-07-17 18:35:00,
2013-07-17 13:50:00,89.5,76.0,30.14,ENE,78,1.0,7.0,65,0.00,,,0.00,weatherlink.com 1.10,2013-07-17 18:50:00,
2013-07-17 14:05:00,89.1,77.0,30.14,East,86,2.0,7.0,67,0.00,,,0.00,weatherlink.com 1.10,2013-07-17 19:05:00,
2013-07-17 14:20:00,89.4,77.0,30.13,ENE,71,1.0,4.0,67,0.00,,,0.00,weatherlink.com 1.10,2013-07-17 19:20:00,
2013-07-17 14:35:00,89.4,78.0,30.13,ENE,60,1.0,5.0,70,0.00,,,0.00,weatherlink.com 1.10,2013-07-17 19:35:00,
2013-07-17 14:50:00,83.3,73.0,30.16,SE,131,13.0,26.0,71,0.01,,,0.01,weatherlink.com 1.10,2013-07-17 19:50:00,
2013-07-17 15:06:00,73.5,71.0,30.14,SW,233,6.0,11.0,91,0.37,,,0.37,weatherlink.com 1.10,2013-07-17 20:06:00,
2013-07-17 15:21:00,73.9,72.0,30.13,SSW,201,0.0,1.0,94,0.37,,,0.37,weatherlink.com 1.10,2013-07-17 20:21:00,
2013-07-17 15:36:00,74.7,74.0,30.14,SSW,201,0.0,0.0,96,0.37,,,0.37,weatherlink.com 1.10,2013-07-17 20:36:00,
2013-07-17 15:51:00,75.8,75.0,30.13,South,186,2.0,3.0,96,0.35,,,0.37,weatherlink.com 1.10,2013-07-17 20:51:00,
2013-07-17 16:06:00,75.3,73.0,30.12,SW,215,1.0,7.0,91,0.00,,,0.37,weatherlink.com 1.10,2013-07-17 21:06:00,
2013-07-17 16:21:00,77.0,72.0,30.12,South,173,4.0,7.0,83,0.00,,,0.37,weatherlink.com 1.10,2013-07-17 21:21:00,
2013-07-17 16:36:00,77.9,72.0,30.11,South,175,2.0,6.0,81,0.00,,,0.37,weatherlink.com 1.10,2013-07-17 21:36:00,
2013-07-17 16:51:00,77.9,72.0,30.11,SW,227,2.0,6.0,83,0.00,,,0.37,weatherlink.com 1.10,2013-07-17 21:51:00,
2013-07-17 17:06:00,79.7,73.0,30.11,SSE,153,2.0,6.0,79,0.00,,,0.37,weatherlink.com 1.10,2013-07-17 22:06:00,
2013-07-17 17:21:00,80.2,72.0,30.10,SE,142,0.0,5.0,77,0.00,,,0.37,weatherlink.com 1.10,2013-07-17 22:21:00,
2013-07-17 17:36:00,81.5,73.0,30.10,SE,136,0.0,3.0,76,0.00,,,0.37,weatherlink.com 1.10,2013-07-17 22:36:00,
2013-07-17 17:51:00,83.9,74.0,30.10,SE,136,1.0,1.0,73,0.00,,,0.37,weatherlink.com 1.10,2013-07-17 22:51:00,
2013-07-17 18:06:00,85.3,75.0,30.09,SE,136,0.0,1.0,70,0.00,,,0.37,weatherlink.com 1.10,2013-07-17 23:06:00,
2013-07-17 18:21:00,86.6,76.0,30.09,SE,136,0.0,2.0,70,0.00,,,0.37,weatherlink.com 1.10,2013-07-17 23:21:00,
2013-07-17 18:36:00,86.5,76.0,30.08,West,273,1.0,3.0,71,0.00,,,0.37,weatherlink.com 1.10,2013-07-17 23:36:00,
2013-07-17 18:51:00,85.2,75.0,30.08,WSW,245,0.0,2.0,72,0.00,,,0.37,weatherlink.com 1.10,2013-07-17 23:51:00,
2013-07-17 19:06:00,86.3,76.0,30.09,WSW,245,0.0,1.0,72,0.00,,,0.37,weatherlink.com 1.10,2013-07-18 00:06:00,
2013-07-17 19:21:00,84.9,76.0,30.09,WSW,245,1.0,2.0,75,0.00,,,0.37,weatherlink.com 1.10,2013-07-18 00:21:00,
2013-07-17 19:36:00,83.1,76.0,30.09,WSW,245,0.0,1.0,80,0.00,,,0.37,weatherlink.com 1.10,2013-07-18 00:36:00,
2013-07-17 19:51:00,82.3,76.0,30.09,WSW,245,0.0,0.0,82,0.00,,,0.37,weatherlink.com 1.10,2013-07-18 00:51:00,
2013-07-17 20:06:00,80.8,76.0,30.09,WSW,245,0.0,1.0,85,0.00,,,0.37,weatherlink.com 1.10,2013-07-18 01:06:00,
2013-07-17 20:21:00,79.7,75.0,30.08,WSW,245,0.0,0.0,85,0.00,,,0.37,weatherlink.com 1.10,2013-07-18 01:21:00,
2013-07-17 20:36:00,78.5,75.0,30.09,WSW,245,0.0,0.0,88,0.00,,,0.37,weatherlink.com 1.10,2013-07-18 01:36:00,
2013-07-17 20:51:00,77.7,75.0,30.09,WSW,245,0.0,0.0,90,0.00,,,0.37,weatherlink.com 1.10,2013-07-18 01:51:00,
2013-07-17 21:06:00,77.3,74.0,30.10,WSW,245,0.0,1.0,90,0.00,,,0.37,weatherlink.com 1.10,2013-07-18 02:06:00,
2013-07-17 21:21:00,77.0,74.0,30.10,WSW,245,0.0,0.0,90,0.00,,,0.37,weatherlink.com 1.10,2013-07-18 02:21:00,
2013-07-17 21:36:00,76.8,74.0,30.12,WSW,245,0.0,1.0,92,0.00,,,0.37,weatherlink.com 1.10,2013-07-18 02:36:00,
2013-07-17 21:51:00,76.7,74.0,30.12,WSW,245,0.0,0.0,92,0.00,,,0.37,weatherlink.com 1.10,2013-07-18 02:51:00,
2013-07-17 22:06:00,77.0,75.0,30.12,WSW,245,0.0,0.0,92,0.00,,,0.37,weatherlink.com 1.10,2013-07-18 03:06:00,
2013-07-17 22:21:00,76.9,75.0,30.12,WSW,245,0.0,0.0,92,0.00,,,0.37,weatherlink.com 1.10,2013-07-18 03:21:00,
2013-07-17 22:36:00,76.6,74.0,30.12,WSW,245,0.0,0.0,92,0.00,,,0.37,weatherlink.com 1.10,2013-07-18 03:36:00,
2013-07-17 22:51:00,76.5,74.0,30.11,WSW,245,0.0,0.0,93,0.00,,,0.37,weatherlink.com 1.10,2013-07-18 03:51:00,
2013-07-17 23:06:00,76.3,75.0,30.12,WSW,245,0.0,0.0,94,0.00,,,0.37,weatherlink.com 1.10,2013-07-18 04:06:00,
2013-07-17 23:21:00,76.0,74.0,30.13,West,260,0.0,2.0,94,0.00,,,0.37,weatherlink.com 1.10,2013-07-18 04:21:00,
2013-07-17 23:36:00,75.9,74.0,30.13,West,260,0.0,0.0,93,0.00,,,0.37,weatherlink.com 1.10,2013-07-18 04:36:00,
2013-07-17 23:51:00,75.7,74.0,30.13,West,260,0.0,0.0,93,0.00,,,0.37,weatherlink.com 1.10,2013-07-18 04:51:00,